Portada
METAR-TAF:

METAR-TAF

Aeropuertos :

Cognac, Francia

latitud: 45-40N, longitud: 000-19W, altitud: 30 m

Observación

El informe se hizo hace 20 minutos, a las 08:00 UTC
Viento 4 kt del sur
Temperatura 20°C
Humedad 83%
Presión 1018 hPa
Visibilidad 10 km o más
Nubes dispersas a una altura de 4500 ft

METAR: LFBG 140800Z AUTO 19004KT 9999 SCT045 20/17 Q1018 NOSIG

Hora: 10:20 (08:20 UTC)

Pronóstico

El informe se hizo hace 3 horas y 18 minutos, a las 05:02 UTC
Pronóstico válido del 14 a las 05 UTC al 15 a las 03 UTC
Viento 5 kt del oeste-suroeste
Visibilidad 10 km o más
Cielo nuboso a una altura de 3000 ft
Temporalmente
del 14 a las 05 UTC al 14 a las 06 UTC
Nubes dispersas a una altura de 1000 ft

TAF: LFBG 140502Z 1405/1503 24005KT 9999 BKN030 TEMPO 1405/1406 SCT010

Observaciones y pronósticos meteorológicos de más de 4000 aeropuertos (mensajes METAR y TAF).

Los puntos amarillos y rojos representan las estaciones disponibles.

Ponga el ratón en el punto deseado para ver el nombre de la estación.

Haga clic para ver las observaciones y los pronósticos meteorológicos.

Para cambiar el mapa : haga clic en los botones verdes con una cruz de color negro para hacer un zoom, en el botón verde con un guión para alejar o en las flechas verdes para mapas adyacentes.


METAR-TAF: